Aérodrome :







RETROUVEZ-NOUS SUR...

 
LOGIN :

S'inscrire | Disclaimer

   EN    FR    IT 

 









Légende :    VFR   VFR Marginal   IFR   IFR Intensif   IFR Très Intensif
Visi : 
Plafond : 
>= 8 km
>= 3000ft
5 à 8 km
1000 à 3000 ft
1500m à 5 km
500 à 1000 ft
800 à 1500m
200 à 500 ft
< 800m
< 200 ft
Symboles :   Orages  Brouillard  Fortes neiges  Fortes précipitations  Vent > 20 kt






- Altitude de l'aérodrome : 59 ft
- Code IATA : PBM


SMJP - J.A. Pengel Int.

DERNIER METAR :
  • 242000Z 05012KT 9999 FEW018 29/23 Q1010 NOSIG

METARs EXPIRÉS :
  • 241900Z 04011KT 9999 SCT020 31/24 Q1010 NOSIG
  • 241800Z 04010KT 8000 FEW020 SCT025 30/23 Q1011 NOSIG

TAF TAF SMJP
Valide du 24 à 18h jusqu'au 25 à 18h UTC


241600Z 2418/2518 07010KT 9999 SCT020 TX31/2418Z TN22/2509Z
BECMG 2422/2500 04005KT CAVOK
PROB30
TEMPO 2508/2510 00000KT 3000 BR SCT002
FM251200 06008KT 9999 SCT020



MET'MAP, la Météo Aéronautique d'un coup d'oeil ! - Copyright ORBIFLY Décembre 2007 - Disclaimer

ORBIFLY MET'MAP TEAM :

Programmation & Développement : Alexandra Zaïnal
Sur une idée originale de : Baudouin d'Aumeries
Assistance à la programmation : Marc-Olivier Méhu
Soutien technique & logistique : Manuel Goepfert

Contact : metmap@orbifly.com




SOURCES & CREDITS :

   NOAA